createdAt,value
2022-09-14T00:03:04.373Z,98328.94
2022-09-14T00:06:11.144Z,98330.81
2022-09-14T00:09:16.325Z,98332.38
2022-09-14T00:12:22.005Z,98340.19
2022-09-14T00:15:31.985Z,98335.34
2022-09-14T00:18:37.943Z,98331.84
2022-09-14T00:21:43.668Z,98331.03
2022-09-14T00:24:49.221Z,98338.28
2022-09-14T00:27:55.179Z,98331.56
2022-09-14T00:31:00.532Z,98338.88
2022-09-14T00:34:06.087Z,98338.31
2022-09-14T00:37:11.833Z,98342.88
2022-09-14T00:40:18.382Z,98344.50
2022-09-14T00:43:24.123Z,98338.84
2022-09-14T00:46:32.296Z,98354.16
2022-09-14T00:49:58.212Z,98343.69
2022-09-14T00:53:06.882Z,98345.03
2022-09-14T00:56:14.455Z,98346.91
2022-09-14T00:59:20.094Z,98340.72
2022-09-14T01:05:50.061Z,98349.84
2022-09-14T01:08:56.014Z,98339.91
2022-09-14T01:12:01.368Z,98352.28
2022-09-14T01:15:07.349Z,98347.97
2022-09-14T01:18:14.113Z,98352.28
2022-09-14T01:21:19.736Z,98358.44
2022-09-14T01:24:31.069Z,98354.69
2022-09-14T01:31:05.855Z,98351.47
2022-09-14T01:34:12.762Z,98352.28
2022-09-14T01:37:18.734Z,98360.84
2022-09-14T01:40:24.456Z,98355.19
2022-09-14T01:43:30.391Z,98358.97
2022-09-14T01:46:36.859Z,98363.53
2022-09-14T01:49:42.628Z,98370.25
2022-09-14T01:52:48.421Z,98364.31
2022-09-14T01:55:54.076Z,98360.84
2022-09-14T01:58:59.461Z,98365.91
2022-09-14T02:02:06.282Z,98362.41
2022-09-14T02:05:11.790Z,98362.69
2022-09-14T02:08:19.376Z,98361.56
2022-09-14T02:11:30.802Z,98365.31
2022-09-14T02:14:36.187Z,98367.97
2022-09-14T02:17:41.620Z,98364.22
2022-09-14T02:20:46.990Z,98363.13
2022-09-14T02:23:52.669Z,98365.53
2022-09-14T02:26:58.691Z,98365.25
2022-09-14T02:30:04.266Z,98368.47
2022-09-14T02:33:10.177Z,98363.38
2022-09-14T02:36:15.654Z,98370.06
2022-09-14T02:39:22.520Z,98368.97
2022-09-14T02:42:28.768Z,98361.44
2022-09-14T02:45:36.055Z,98360.91
2022-09-14T02:48:42.192Z,98368.66
2022-09-14T02:51:48.690Z,98361.16
2022-09-14T02:54:54.510Z,98358.97
2022-09-14T02:58:00.388Z,98362.22
2022-09-14T03:01:07.048Z,98364.88
2022-09-14T03:04:13.029Z,98364.06
2022-09-14T03:07:18.920Z,98366.47
2022-09-14T03:10:24.558Z,98368.91
2022-09-14T03:13:30.174Z,98363.81
2022-09-14T03:16:35.387Z,98357.44
2022-09-14T03:19:41.632Z,98368.41
2022-09-14T03:22:47.112Z,98366.28
2022-09-14T03:25:53.888Z,98355.31
2022-09-14T03:28:59.209Z,98358.78
2022-09-14T03:32:05.167Z,98365.47
2022-09-14T03:35:11.085Z,98362.53
2022-09-14T03:38:16.853Z,98364.66
2022-09-14T03:41:22.917Z,98355.53
2022-09-14T03:44:30.582Z,98356.31
2022-09-14T03:47:36.210Z,98366.75
2022-09-14T03:50:42.092Z,98362.16
2022-09-14T03:53:47.952Z,98367.25
2022-09-14T03:56:54.107Z,98372.84
2022-09-14T04:00:00.009Z,98373.91
2022-09-14T04:03:05.856Z,98377.41
2022-09-14T04:06:12.595Z,98387.88
2022-09-14T04:09:19.491Z,98381.44
2022-09-14T04:12:24.828Z,98377.75
2022-09-14T04:15:30.883Z,98380.97
2022-09-14T04:18:36.811Z,98382.84
2022-09-14T04:21:42.698Z,98379.34
2022-09-14T04:24:48.977Z,98378.00
2022-09-14T04:28:19.323Z,98376.94
2022-09-14T04:31:23.841Z,98370.25
2022-09-14T04:34:29.844Z,98375.59
2022-09-14T04:37:36.670Z,98378.00
2022-09-14T04:40:48.018Z,98365.69
2022-09-14T04:43:53.933Z,98363.56
2022-09-14T04:47:00.082Z,98361.44
2022-09-14T04:50:06.008Z,98371.09
2022-09-14T04:53:12.639Z,98370.56
2022-09-14T04:56:18.502Z,98375.72
2022-09-14T04:59:23.997Z,98379.22
2022-09-14T05:02:31.130Z,98374.41
2022-09-14T05:05:40.042Z,98382.47
2022-09-14T05:08:50.112Z,98377.66
2022-09-14T05:11:55.866Z,98377.72
2022-09-14T05:15:01.581Z,98381.22
2022-09-14T05:18:06.931Z,98378.00
2022-09-14T05:21:12.481Z,98382.28
2022-09-14T05:24:18.488Z,98383.66
2022-09-14T05:27:24.761Z,98383.66
2022-09-14T05:30:30.406Z,98387.44
2022-09-14T05:33:37.947Z,98391.19
2022-09-14T05:36:43.451Z,98394.72
2022-09-14T05:39:49.734Z,98398.19
2022-09-14T05:42:55.424Z,98398.19
2022-09-14T05:46:01.173Z,98397.94
2022-09-14T05:49:08.082Z,98394.72
2022-09-14T05:52:13.428Z,98396.31
2022-09-14T05:55:19.579Z,98399.25
2022-09-14T05:58:25.031Z,98389.88
2022-09-14T06:01:31.152Z,98390.94
2022-09-14T06:04:37.326Z,98388.75
2022-09-14T06:07:43.289Z,98390.63
2022-09-14T06:10:49.658Z,98399.75
2022-09-14T06:13:55.360Z,98404.00
2022-09-14T06:17:00.912Z,98408.31
2022-09-14T06:20:06.813Z,98401.31
2022-09-14T06:23:12.679Z,98407.50
2022-09-14T06:26:18.902Z,98404.84
2022-09-14T06:29:38.472Z,98408.34
2022-09-14T06:32:44.442Z,98408.34
2022-09-14T06:35:50.293Z,98405.38
2022-09-14T06:38:55.841Z,98402.94
2022-09-14T06:42:01.861Z,98406.97
2022-09-14T06:45:08.651Z,98405.88
2022-09-14T06:48:14.282Z,98406.94
2022-09-14T06:51:42.820Z,98406.06
2022-09-14T06:54:49.418Z,98417.88
2022-09-14T06:57:55.123Z,98404.16
2022-09-14T07:01:01.453Z,98410.56
2022-09-14T07:04:07.081Z,98408.06
2022-09-14T07:07:13.366Z,98421.50
2022-09-14T07:10:18.913Z,98418.06
2022-09-14T07:13:24.766Z,98411.38
2022-09-14T07:16:30.365Z,98417.34
2022-09-14T07:19:36.276Z,98424.34
2022-09-14T07:26:01.511Z,98420.22
2022-09-14T07:29:07.069Z,98429.59
2022-09-14T07:32:12.510Z,98428.22
2022-09-14T07:35:18.170Z,98436.19
2022-09-14T07:38:48.560Z,98428.34
2022-09-14T07:41:55.048Z,98430.47
2022-09-14T07:45:04.721Z,98437.19
2022-09-14T07:48:11.416Z,98437.53
2022-09-14T07:51:17.895Z,98439.25
2022-09-14T07:54:30.968Z,98437.59
2022-09-14T07:57:55.154Z,98439.63
2022-09-14T08:01:02.803Z,98427.91
2022-09-14T08:07:34.786Z,98439.94
2022-09-14T08:10:40.560Z,98439.13
2022-09-14T08:13:46.190Z,98436.41
2022-09-14T08:16:52.424Z,98444.75
2022-09-14T08:19:58.167Z,98427.66
2022-09-14T08:23:03.733Z,98426.91
2022-09-14T08:26:09.220Z,98439.59
2022-09-14T08:29:15.295Z,98423.59
2022-09-14T08:32:21.735Z,98419.78
2022-09-14T08:35:53.612Z,98423.59
2022-09-14T08:38:54.927Z,98425.31
2022-09-14T08:42:02.609Z,98422.25
2022-09-14T08:45:13.682Z,98423.47
2022-09-14T08:48:19.976Z,98418.66
2022-09-14T08:51:26.864Z,98423.41
2022-09-14T08:54:32.975Z,98421.53
2022-09-14T08:57:38.448Z,98421.06
2022-09-14T09:00:43.970Z,98420.84
2022-09-14T09:03:50.077Z,98418.75
2022-09-14T09:06:58.235Z,98427.19
2022-09-14T09:10:06.277Z,98424.69
2022-09-14T09:13:12.272Z,98426.63
2022-09-14T09:16:18.303Z,98422.28
2022-09-14T09:19:28.434Z,98416.09
2022-09-14T09:22:34.289Z,98426.19
2022-09-14T09:26:00.997Z,98420.13
2022-09-14T09:29:07.391Z,98420.09
2022-09-14T09:32:13.135Z,98425.66
2022-09-14T09:35:19.022Z,98416.81
2022-09-14T09:38:25.107Z,98423.25
2022-09-14T09:41:31.021Z,98413.22
2022-09-14T09:44:36.353Z,98419.16
2022-09-14T09:47:42.117Z,98415.75
2022-09-14T09:50:48.795Z,98422.47
2022-09-14T09:53:54.405Z,98425.63
2022-09-14T09:57:00.935Z,98414.47
2022-09-14T10:00:06.383Z,98413.66
2022-09-14T10:03:12.001Z,98411.56
2022-09-14T10:06:18.318Z,98412.38
2022-09-14T10:09:30.796Z,98415.19
2022-09-14T10:12:53.959Z,98426.19
2022-09-14T10:15:59.643Z,98421.16
2022-09-14T10:19:05.639Z,98420.09
2022-09-14T10:22:16.660Z,98412.72
2022-09-14T10:25:23.545Z,98418.47
2022-09-14T10:28:36.245Z,98406.41
2022-09-14T10:31:42.360Z,98415.41
2022-09-14T10:34:48.096Z,98419.56
2022-09-14T10:37:54.404Z,98417.09
2022-09-14T10:41:00.014Z,98415.69
2022-09-14T10:44:05.685Z,98422.19
2022-09-14T10:47:14.312Z,98410.31
2022-09-14T10:50:20.519Z,98415.78
2022-09-14T10:53:26.650Z,98413.66
2022-09-14T10:56:32.259Z,98420.22
2022-09-14T10:59:41.357Z,98419.00
2022-09-14T11:02:47.012Z,98418.31
2022-09-14T11:05:52.701Z,98424.81
2022-09-14T11:08:59.210Z,98427.78
2022-09-14T11:12:07.970Z,98426.81
2022-09-14T11:15:13.631Z,98424.56
2022-09-14T11:18:18.831Z,98431.75
2022-09-14T11:21:24.070Z,98424.03
2022-09-14T11:24:30.075Z,98436.88
2022-09-14T11:27:35.986Z,98431.28
2022-09-14T11:30:42.360Z,98428.44
2022-09-14T11:33:48.053Z,98423.28
2022-09-14T11:36:54.741Z,98424.50
2022-09-14T11:40:00.980Z,98419.72
2022-09-14T11:43:08.170Z,98426.84
2022-09-14T11:46:19.920Z,98424.00
2022-09-14T11:49:25.494Z,98433.03
2022-09-14T11:52:30.960Z,98426.50
2022-09-14T11:55:37.060Z,98430.59
2022-09-14T11:58:42.890Z,98430.38
2022-09-14T12:01:49.151Z,98427.06
2022-09-14T12:04:54.668Z,98427.47
2022-09-14T12:08:00.052Z,98423.53
2022-09-14T12:11:06.473Z,98426.81
2022-09-14T12:14:12.591Z,98431.56
2022-09-14T12:20:44.414Z,98427.38
2022-09-14T12:23:52.494Z,98432.13
2022-09-14T12:26:59.312Z,98421.47
2022-09-14T12:30:05.708Z,98417.47
2022-09-14T12:33:11.767Z,98416.66
2022-09-14T12:36:17.445Z,98427.25
2022-09-14T12:39:23.450Z,98424.38
2022-09-14T12:42:29.911Z,98415.75
2022-09-14T12:45:35.913Z,98414.63
2022-09-14T12:48:41.426Z,98429.41
2022-09-14T12:51:46.805Z,98420.50
2022-09-14T12:54:51.988Z,98411.56
2022-09-14T12:57:58.473Z,98426.50
2022-09-14T13:01:04.750Z,98417.38
2022-09-14T13:04:11.002Z,98422.41
2022-09-14T13:07:16.700Z,98424.78
2022-09-14T13:10:22.141Z,98418.94
2022-09-14T13:13:28.691Z,98420.53
2022-09-14T13:16:34.334Z,98417.75
2022-09-14T13:19:39.867Z,98419.31
2022-09-14T13:22:45.244Z,98426.97
2022-09-14T13:25:50.753Z,98426.47
2022-09-14T13:28:57.242Z,98438.78
2022-09-14T13:32:04.091Z,98429.13
2022-09-14T13:35:10.325Z,98431.69
2022-09-14T13:38:15.947Z,98425.66
2022-09-14T13:41:23.012Z,98423.47
2022-09-14T13:44:29.119Z,98420.28
2022-09-14T13:47:36.355Z,98417.38
2022-09-14T13:50:42.530Z,98417.69
2022-09-14T13:53:49.189Z,98420.88
2022-09-14T13:56:54.620Z,98422.88
2022-09-14T14:00:00.532Z,98426.06
2022-09-14T14:03:06.346Z,98419.94
2022-09-14T14:06:12.623Z,98413.75
2022-09-14T14:09:18.031Z,98412.97
2022-09-14T14:12:24.050Z,98413.06
2022-09-14T14:15:29.910Z,98414.56
2022-09-14T14:18:35.878Z,98412.41
2022-09-14T14:21:44.041Z,98401.69
2022-09-14T14:28:13.864Z,98409.94
2022-09-14T14:31:20.685Z,98414.31
2022-09-14T14:34:29.012Z,98407.78
2022-09-14T14:37:35.994Z,98415.50
2022-09-14T14:40:41.496Z,98410.63
2022-09-14T14:43:47.160Z,98423.81
2022-09-14T14:46:53.118Z,98415.78
2022-09-14T14:49:59.643Z,98419.78
2022-09-14T14:53:05.663Z,98406.25
2022-09-14T14:56:11.049Z,98412.47
2022-09-14T14:59:17.523Z,98404.72
2022-09-14T15:02:23.764Z,98398.28
2022-09-14T15:05:31.354Z,98399.84
2022-09-14T15:08:55.028Z,98405.69
2022-09-14T15:12:01.110Z,98391.16
2022-09-14T15:15:07.043Z,98397.38
2022-09-14T15:18:16.081Z,98404.16
2022-09-14T15:21:22.386Z,98401.63
2022-09-14T15:24:32.957Z,98399.75
2022-09-14T15:27:38.744Z,98394.56
2022-09-14T15:30:44.397Z,98393.50
2022-09-14T15:33:50.227Z,98386.09
2022-09-14T15:40:22.064Z,98383.47
2022-09-14T15:43:29.537Z,98389.28
2022-09-14T15:46:35.122Z,98388.09
2022-09-14T15:49:41.048Z,98392.00
2022-09-14T15:52:46.812Z,98383.28
2022-09-14T15:55:55.819Z,98385.31
2022-09-14T15:59:01.825Z,98376.78
2022-09-14T16:02:07.007Z,98378.16
2022-09-14T16:05:18.265Z,98378.66
2022-09-14T16:08:24.463Z,98377.88
2022-09-14T16:11:33.314Z,98370.16
2022-09-14T16:14:38.504Z,98374.66
2022-09-14T16:17:43.756Z,98373.22
2022-09-14T16:20:50.224Z,98373.13
2022-09-14T16:23:56.393Z,98373.00
2022-09-14T16:27:02.934Z,98374.47
2022-09-14T16:30:08.631Z,98370.84
2022-09-14T16:33:14.471Z,98370.09
2022-09-14T16:36:21.396Z,98368.03
2022-09-14T16:39:30.432Z,98367.38
2022-09-14T16:42:52.027Z,98369.44
2022-09-14T16:45:58.693Z,98366.38
2022-09-14T16:49:05.760Z,98363.25
2022-09-14T16:52:11.555Z,98362.75
2022-09-14T16:55:17.469Z,98363.03
2022-09-14T16:58:31.055Z,98359.31
2022-09-14T17:01:37.895Z,98362.59
2022-09-14T17:04:55.827Z,98380.56
2022-09-14T17:08:10.739Z,98382.56
2022-09-14T17:11:16.228Z,98388.50
2022-09-14T17:14:23.867Z,98377.22
2022-09-14T17:17:29.613Z,98361.22
2022-09-14T17:20:35.727Z,98362.94
2022-09-14T17:23:42.119Z,98357.41
2022-09-14T17:26:47.949Z,98365.38
2022-09-14T17:30:16.524Z,98363.53
2022-09-14T17:33:22.137Z,98360.16
2022-09-14T17:36:27.981Z,98362.13
2022-09-14T17:39:33.746Z,98361.38
2022-09-14T17:42:42.073Z,98362.81
2022-09-14T17:49:17.829Z,98388.31
2022-09-14T17:52:23.648Z,98380.66
2022-09-14T17:55:30.499Z,98383.44
2022-09-14T17:58:36.908Z,98380.78
2022-09-14T18:02:02.483Z,98376.78
2022-09-14T18:05:10.333Z,98387.88
2022-09-14T18:08:16.705Z,98384.69
2022-09-14T18:11:22.640Z,98387.63
2022-09-14T18:14:27.995Z,98393.81
2022-09-14T18:17:33.201Z,98384.69
2022-09-14T18:20:38.621Z,98382.53
2022-09-14T18:23:44.475Z,98390.06
2022-09-14T18:26:50.512Z,98382.28
2022-09-14T18:29:56.498Z,98376.13
2022-09-14T18:33:03.524Z,98367.25
2022-09-14T18:36:09.091Z,98375.59
2022-09-14T18:39:17.536Z,98369.41
2022-09-14T18:42:24.184Z,98380.19
2022-09-14T18:45:31.097Z,98374.56
2022-09-14T18:48:37.612Z,98377.78
2022-09-14T18:51:49.703Z,98378.84
2022-09-14T18:54:56.086Z,98379.91
2022-09-14T18:58:01.735Z,98380.47
2022-09-14T19:01:07.321Z,98381.25
2022-09-14T19:04:16.028Z,98380.19
2022-09-14T19:07:21.788Z,98368.34
2022-09-14T19:10:27.171Z,98379.09
2022-09-14T19:13:32.735Z,98371.31
2022-09-14T19:16:39.322Z,98369.13
2022-09-14T19:19:58.955Z,98374.50
2022-09-14T19:23:05.045Z,98368.59
2022-09-14T19:26:11.678Z,98367.78
2022-09-14T19:29:17.738Z,98362.41
2022-09-14T19:32:23.863Z,98356.50
2022-09-14T19:35:33.152Z,98356.50
2022-09-14T19:38:38.713Z,98365.91
2022-09-14T19:41:44.403Z,98364.56
2022-09-14T19:44:50.397Z,98361.59
2022-09-14T19:47:55.630Z,98361.88
2022-09-14T19:51:03.374Z,98365.88
2022-09-14T19:54:10.912Z,98362.09
2022-09-14T19:57:16.579Z,98355.91
2022-09-14T20:00:22.840Z,98353.22
2022-09-14T20:03:28.317Z,98348.66
2022-09-14T20:06:34.748Z,98357.00
2022-09-14T20:09:41.231Z,98364.78
2022-09-14T20:12:47.243Z,98357.00
2022-09-14T20:15:53.313Z,98357.56
2022-09-14T20:22:37.141Z,98350.03
2022-09-14T20:25:43.416Z,98341.47
2022-09-14T20:28:48.727Z,98344.44
2022-09-14T20:31:54.856Z,98344.16
2022-09-14T20:35:00.972Z,98340.94
2022-09-14T20:38:07.283Z,98345.53
2022-09-14T20:41:12.572Z,98340.69
2022-09-14T20:44:22.781Z,98343.38
2022-09-14T20:47:28.944Z,98341.78
2022-09-14T20:50:35.641Z,98347.41
2022-09-14T20:53:41.455Z,98351.44
2022-09-14T20:56:48.127Z,98341.75
2022-09-14T20:59:53.890Z,98334.81
2022-09-14T21:02:59.974Z,98331.03
2022-09-14T21:06:05.674Z,98330.53
2022-09-14T21:09:11.665Z,98328.13
2022-09-14T21:12:17.375Z,98327.31
2022-09-14T21:15:22.869Z,98323.53
2022-09-14T21:18:28.859Z,98324.63
2022-09-14T21:21:34.456Z,98321.94
2022-09-14T21:24:39.946Z,98315.47
2022-09-14T21:27:45.492Z,98310.63
2022-09-14T21:30:51.666Z,98315.72
2022-09-14T21:33:58.792Z,98311.47
2022-09-14T21:37:04.209Z,98322.47
2022-09-14T21:40:09.585Z,98312.53
2022-09-14T21:43:15.088Z,98319.78
2022-09-14T21:46:20.486Z,98311.19
2022-09-14T21:49:26.570Z,98311.19
2022-09-14T21:52:32.625Z,98312.78
2022-09-14T21:55:38.220Z,98313.06
2022-09-14T21:58:44.210Z,98316.81
2022-09-14T22:01:49.972Z,98309.31
2022-09-14T22:04:56.276Z,98306.34
2022-09-14T22:08:02.392Z,98300.72
2022-09-14T22:11:08.248Z,98297.75
2022-09-14T22:14:14.691Z,98297.47
2022-09-14T22:17:20.162Z,98302.84
2022-09-14T22:20:28.356Z,98299.09
2022-09-14T22:23:33.931Z,98289.97
2022-09-14T22:26:40.280Z,98290.50
2022-09-14T22:29:45.689Z,98281.09
2022-09-14T22:32:51.358Z,98285.16
2022-09-14T22:35:57.276Z,98279.78
2022-09-14T22:39:03.381Z,98282.19
2022-09-14T22:42:09.044Z,98277.63
2022-09-14T22:45:14.268Z,98271.19
2022-09-14T22:48:19.884Z,98282.72
2022-09-14T22:51:25.804Z,98280.28
2022-09-14T22:54:31.672Z,98277.88
2022-09-14T22:57:38.222Z,98274.91
2022-09-14T23:00:43.934Z,98272.50
2022-09-14T23:03:53.196Z,98267.13
2022-09-14T23:07:03.502Z,98273.53
2022-09-14T23:10:10.013Z,98269.22
2022-09-14T23:13:15.709Z,98259.81
2022-09-14T23:16:21.051Z,98267.34
2022-09-14T23:19:28.026Z,98259.28
2022-09-14T23:22:34.296Z,98266.53
2022-09-14T23:25:40.713Z,98259.81
2022-09-14T23:28:49.808Z,98264.13
2022-09-14T23:31:56.465Z,98250.16
2022-09-14T23:35:02.078Z,98255.78
2022-09-14T23:38:07.758Z,98245.59
2022-09-14T23:41:13.132Z,98247.25
2022-09-14T23:44:18.665Z,98240.25
2022-09-14T23:47:25.210Z,98232.78
2022-09-14T23:50:31.700Z,98225.28
2022-09-14T23:53:37.535Z,98226.34
2022-09-14T23:56:44.149Z,98230.38
2022-09-14T23:59:50.354Z,98221.81
